Time;durP1;ratioP1;P1;durP2;ratioP2;P2;SDS_P1;SDS_P2;PMS_P1;PMS_P2;Temp;Humidity;BMP_temperature;BMP_pressure;BME280_temperature;BME280_humidity;BME280_pressure;Samples;Min_cycle;Max_cycle;Signal;HPM_P1;HPM_P2
2023/06/19 00:00:39;;;;;;;8.30;6.30;;;;;;;20.82;74.58;100702.22;4898175;29;20028;-84
2023/06/19 00:03:05;;;;;;;7.18;6.10;;;;;;;20.72;74.33;100693.31;4917864;29;20032;-85
2023/06/19 00:05:30;;;;;;;7.80;6.13;;;;;;;20.78;74.76;100695.88;4906887;29;20521;-85
2023/06/19 00:07:56;;;;;;;8.57;6.78;;;;;;;20.79;73.87;100705.63;4907597;29;20543;-85
2023/06/19 00:10:21;;;;;;;9.23;6.40;;;;;;;20.71;73.95;100696.38;4917412;29;20028;-85
2023/06/19 00:12:48;;;;;;;6.50;5.90;;;;;;;20.71;75.56;100705.31;4904043;29;20037;-86
2023/06/19 00:15:14;;;;;;;7.35;6.05;;;;;;;20.68;75.35;100705.97;4898516;29;20024;-85
2023/06/19 00:17:41;;;;;;;7.85;6.47;;;;;;;20.64;76.56;100707.75;4900635;29;20092;-85
2023/06/19 00:20:07;;;;;;;9.75;6.18;;;;;;;20.68;75.21;100725.03;4898420;29;20037;-85
2023/06/19 00:22:32;;;;;;;8.55;5.50;;;;;;;20.59;75.72;100721.56;4912171;29;20025;-85
2023/06/19 00:24:59;;;;;;;8.97;6.27;;;;;;;20.47;75.94;100724.97;4917049;29;20035;-86
2023/06/19 00:27:26;;;;;;;7.55;6.03;;;;;;;20.39;76.78;100726.63;4904384;29;20028;-85
2023/06/19 00:29:51;;;;;;;7.50;6.00;;;;;;;20.31;77.70;100737.53;4901423;29;20392;-85
2023/06/19 00:32:17;;;;;;;7.60;6.37;;;;;;;20.19;78.69;100739.00;4909784;29;20111;-85
2023/06/19 00:34:45;;;;;;;9.45;6.65;;;;;;;20.09;78.44;100737.44;4912501;29;20052;-85
2023/06/19 00:37:13;;;;;;;7.43;6.33;;;;;;;20.02;79.39;100747.22;4899049;29;20133;-85
2023/06/19 00:39:39;;;;;;;9.17;6.10;;;;;;;19.94;79.83;100743.41;4914251;29;20324;-86
2023/06/19 00:42:04;;;;;;;7.82;5.70;;;;;;;19.76;79.37;100739.91;4900070;29;20071;-87
2023/06/19 00:44:30;;;;;;;9.00;6.18;;;;;;;19.74;80.24;100756.53;4897766;29;20072;-85
2023/06/19 00:46:57;;;;;;;9.27;6.67;;;;;;;19.62;81.53;100750.94;4897289;29;20029;-86
2023/06/19 00:49:24;;;;;;;8.52;6.40;;;;;;;19.57;81.60;100753.81;4916639;29;20039;-85
2023/06/19 00:51:51;;;;;;;10.25;6.88;;;;;;;19.50;82.21;100757.84;4898663;29;20043;-85
2023/06/19 00:54:17;;;;;;;8.45;6.50;;;;;;;19.42;83.24;100753.19;4911346;29;20063;-85
2023/06/19 00:56:43;;;;;;;7.57;6.80;;;;;;;19.41;83.43;100757.03;4897635;29;20048;-85
2023/06/19 00:59:15;;;;;;;8.32;6.68;;;;;;;19.35;83.06;100763.75;4915971;29;20028;-85
2023/06/19 01:01:41;;;;;;;7.43;6.65;;;;;;;19.32;83.78;100767.09;4921446;29;20031;-85
2023/06/19 01:04:06;;;;;;;8.63;6.45;;;;;;;19.31;83.61;100758.13;4919525;29;20481;-84
2023/06/19 01:06:42;;;;;;;6.90;6.20;;;;;;;19.28;83.49;100766.13;4896406;29;20064;-85
2023/06/19 01:09:11;;;;;;;7.95;6.18;;;;;;;19.27;84.79;100761.81;4906243;29;20043;-85
2023/06/19 01:11:41;;;;;;;8.10;5.55;;;;;;;19.31;84.82;100768.22;4884523;29;20047;-88
2023/06/19 01:14:16;;;;;;;6.60;5.88;;;;;;;19.30;84.56;100759.25;4897809;29;20584;-85
2023/06/19 01:16:42;;;;;;;7.60;5.80;;;;;;;19.29;84.83;100765.00;4896806;29;20114;-85
2023/06/19 01:19:10;;;;;;;6.85;5.50;;;;;;;19.28;85.15;100779.72;4899052;29;20039;-85
2023/06/19 01:21:36;;;;;;;5.85;5.25;;;;;;;19.24;85.18;100767.88;4899237;29;20444;-85
2023/06/19 01:24:02;;;;;;;8.27;5.20;;;;;;;19.19;85.86;100772.34;4898973;29;20036;-85
2023/06/19 01:26:27;;;;;;;6.90;4.83;;;;;;;19.19;85.71;100771.56;4915604;29;20092;-85
2023/06/19 01:28:56;;;;;;;5.67;4.60;;;;;;;19.20;87.52;100776.66;4911679;29;20551;-85
2023/06/19 01:31:29;;;;;;;8.30;4.68;;;;;;;19.13;87.32;100762.75;4914438;29;20032;-85
2023/06/19 01:33:56;;;;;;;6.70;4.43;;;;;;;19.14;88.12;100779.84;4916187;29;20035;-85
2023/06/19 01:36:23;;;;;;;6.25;4.88;;;;;;;19.10;88.51;100784.31;4891097;29;20508;-85
2023/06/19 01:38:50;;;;;;;6.07;4.30;;;;;;;19.03;89.15;100788.31;4910197;29;20432;-85
2023/06/19 01:41:18;;;;;;;5.28;4.47;;;;;;;19.01;89.54;100792.44;4903822;29;20033;-85
2023/06/19 01:43:45;;;;;;;6.82;4.05;;;;;;;18.95;90.21;100794.50;4908867;29;20398;-85
2023/06/19 01:46:10;;;;;;;4.65;4.22;;;;;;;18.98;90.85;100793.09;4896467;29;20028;-85
2023/06/19 01:48:38;;;;;;;5.43;4.53;;;;;;;19.12;90.63;100803.81;4908105;29;20291;-85
2023/06/19 01:51:03;;;;;;;7.10;3.95;;;;;;;19.15;90.79;100798.56;4898570;29;20058;-85
2023/06/19 01:53:31;;;;;;;5.03;3.83;;;;;;;19.19;91.27;100794.06;4893820;29;20028;-86
2023/06/19 01:55:58;;;;;;;4.75;4.25;;;;;;;19.10;91.68;100797.88;4895713;29;20087;-85
2023/06/19 01:58:23;;;;;;;4.82;4.18;;;;;;;18.97;92.08;100797.69;4905907;29;20028;-85
2023/06/19 02:00:49;;;;;;;5.03;4.00;;;;;;;18.94;93.58;100802.94;4897343;29;20155;-86
2023/06/19 02:03:14;;;;;;;5.37;4.30;;;;;;;18.89;94.30;100820.19;4914274;29;20035;-85
2023/06/19 02:05:39;;;;;;;5.17;3.77;;;;;;;18.80;94.21;100806.59;4896098;29;20535;-85
2023/06/19 02:08:06;;;;;;;4.45;3.50;;;;;;;18.75;94.22;100801.28;4903320;29;20047;-86
2023/06/19 02:10:33;;;;;;;6.37;3.83;;;;;;;18.67;95.30;100811.00;4914920;29;20031;-85
2023/06/19 02:12:59;;;;;;;6.43;3.58;;;;;;;18.60;96.10;100822.31;4896533;29;20029;-85
2023/06/19 02:15:25;;;;;;;6.43;3.97;;;;;;;18.55;98.02;100819.72;4896492;29;20047;-85
2023/06/19 02:17:54;;;;;;;3.90;3.47;;;;;;;18.66;97.41;100825.69;4899437;29;20033;-85
2023/06/19 02:20:21;;;;;;;4.53;3.00;;;;;;;18.77;97.81;100826.19;4908662;29;20296;-85
2023/06/19 02:22:46;;;;;;;4.63;3.15;;;;;;;18.77;97.33;100821.56;4927724;29;20116;-85
2023/06/19 02:25:11;;;;;;;4.77;3.10;;;;;;;18.76;97.91;100819.97;4915096;29;20083;-85
2023/06/19 02:27:37;;;;;;;3.40;2.93;;;;;;;18.72;98.48;100840.69;4915979;29;20386;-85
2023/06/19 02:30:03;;;;;;;4.07;3.17;;;;;;;18.61;99.07;100826.63;4921312;29;20042;-85
2023/06/19 02:32:28;;;;;;;4.40;2.97;;;;;;;18.52;100.00;100828.47;4908724;29;20029;-85
2023/06/19 02:34:53;;;;;;;6.23;2.97;;;;;;;18.44;100.00;100826.53;4886855;29;20032;-85
2023/06/19 02:37:20;;;;;;;4.80;2.70;;;;;;;18.38;99.80;100828.56;4894427;29;20074;-85
2023/06/19 02:39:45;;;;;;;3.42;3.03;;;;;;;18.25;100.00;100818.59;4904307;29;20519;-85
2023/06/19 02:42:11;;;;;;;5.33;3.07;;;;;;;18.22;100.00;100827.34;4913552;29;20032;-85
2023/06/19 02:44:36;;;;;;;3.00;2.57;;;;;;;18.16;100.00;100823.97;4915132;29;20096;-85
2023/06/19 02:47:01;;;;;;;2.90;2.60;;;;;;;18.07;100.00;100828.53;4914487;29;20096;-85
2023/06/19 02:49:28;;;;;;;2.80;2.43;;;;;;;18.06;100.00;100818.81;4905978;29;20481;-86
2023/06/19 02:51:53;;;;;;;5.10;2.47;;;;;;;18.01;100.00;100822.44;4889320;29;20052;-85
2023/06/19 02:54:18;;;;;;;3.67;2.60;;;;;;;17.99;100.00;100806.47;4895840;29;20428;-85
2023/06/19 02:56:44;;;;;;;2.93;2.60;;;;;;;17.95;100.00;100824.44;4895077;29;20031;-85
2023/06/19 02:59:09;;;;;;;2.93;2.50;;;;;;;17.92;100.00;100835.09;4909508;29;20040;-85
2023/06/19 03:01:34;;;;;;;3.70;2.60;;;;;;;17.80;100.00;100831.00;4913796;29;20115;-86
2023/06/19 03:04:00;;;;;;;3.57;2.60;;;;;;;17.85;100.00;100841.75;4904886;29;20029;-85
2023/06/19 03:06:26;;;;;;;5.43;2.80;;;;;;;17.83;100.00;100835.03;4894021;29;20359;-85
2023/06/19 03:08:51;;;;;;;3.93;2.53;;;;;;;17.78;100.00;100835.13;4907195;29;20520;-85
2023/06/19 03:11:18;;;;;;;4.30;2.50;;;;;;;17.78;100.00;100835.13;4913494;29;20064;-85
2023/06/19 03:13:46;;;;;;;5.68;3.10;;;;;;;17.81;100.00;100845.38;4913005;29;20531;-85
2023/06/19 03:16:12;;;;;;;3.00;2.70;;;;;;;17.74;100.00;100844.97;4906163;29;20075;-85
2023/06/19 03:18:38;;;;;;;3.33;2.50;;;;;;;17.75;100.00;100850.13;4912753;29;20433;-85
2023/06/19 03:21:03;;;;;;;2.58;2.30;;;;;;;17.71;100.00;100847.19;4906816;29;20671;-85
2023/06/19 03:23:28;;;;;;;3.30;3.00;;;;;;;17.68;100.00;100850.53;4896165;29;20040;-86
2023/06/19 03:25:54;;;;;;;5.13;2.90;;;;;;;17.69;100.00;100854.84;4894537;29;20044;-85
2023/06/19 03:28:19;;;;;;;3.80;2.87;;;;;;;17.60;100.00;100851.25;4902441;29;20040;-85
2023/06/19 03:30:45;;;;;;;3.70;3.13;;;;;;;17.62;100.00;100865.28;4918047;29;20032;-85
2023/06/19 03:33:10;;;;;;;3.77;3.40;;;;;;;17.62;100.00;100857.16;4914029;29;20036;-85
2023/06/19 03:35:35;;;;;;;4.57;3.47;;;;;;;17.62;100.00;100851.75;4898966;29;20115;-85
2023/06/19 03:38:00;;;;;;;3.57;3.03;;;;;;;17.63;100.00;100857.97;4902685;29;20559;-85
2023/06/19 03:40:26;;;;;;;5.27;3.40;;;;;;;17.66;100.00;100849.22;4902261;29;20036;-84
2023/06/19 03:42:51;;;;;;;5.13;3.00;;;;;;;17.64;100.00;100860.38;4915142;29;20066;-85
2023/06/19 03:45:16;;;;;;;4.03;3.25;;;;;;;17.59;100.00;100854.28;4898599;29;20045;-84
2023/06/19 03:47:42;;;;;;;3.70;3.30;;;;;;;17.64;100.00;100871.22;4899766;29;20096;-85
2023/06/19 03:50:09;;;;;;;3.90;3.20;;;;;;;17.64;100.00;100873.09;4916612;29;20120;-85
2023/06/19 03:52:36;;;;;;;5.60;3.50;;;;;;;17.75;100.00;100879.09;4917015;29;20032;-85
2023/06/19 03:55:02;;;;;;;5.53;3.53;;;;;;;17.84;100.00;100880.00;4916701;29;20395;-85
2023/06/19 03:57:27;;;;;;;5.50;3.43;;;;;;;17.98;100.00;100888.91;4897160;29;20024;-85
2023/06/19 03:59:53;;;;;;;4.27;3.07;;;;;;;18.06;100.00;100883.88;4916533;29;20498;-84
2023/06/19 04:02:19;;;;;;;4.95;3.67;;;;;;;18.13;100.00;100885.06;4916478;29;20042;-85
2023/06/19 04:04:44;;;;;;;4.03;3.63;;;;;;;18.25;100.00;100900.78;4900307;29;20111;-85
2023/06/19 04:07:09;;;;;;;5.73;3.13;;;;;;;18.31;100.00;100893.31;4910811;29;20472;-85
2023/06/19 04:09:35;;;;;;;5.60;3.80;;;;;;;18.36;100.00;100904.00;4915447;29;20481;-85
2023/06/19 04:12:01;;;;;;;3.83;3.20;;;;;;;18.46;100.00;100908.38;4910507;29;20092;-85
2023/06/19 04:14:26;;;;;;;5.47;3.67;;;;;;;18.51;100.00;100910.97;4893576;29;20104;-85
2023/06/19 04:16:51;;;;;;;4.27;3.83;;;;;;;18.48;100.00;100894.53;4897867;29;20445;-85
2023/06/19 04:19:17;;;;;;;4.73;3.80;;;;;;;18.46;100.00;100898.34;4895791;29;20028;-85
2023/06/19 04:21:42;;;;;;;8.00;3.92;;;;;;;18.57;100.00;100919.78;4903058;29;20024;-85
2023/06/19 04:24:08;;;;;;;4.63;3.90;;;;;;;18.60;100.00;100922.72;4915039;29;20565;-85
2023/06/19 04:26:36;;;;;;;8.93;3.50;;;;;;;18.65;100.00;100926.38;4917167;29;20031;-85
2023/06/19 04:29:01;;;;;;;4.73;3.97;;;;;;;18.68;100.00;100925.75;4916972;29;20340;-84
2023/06/19 04:31:28;;;;;;;4.70;3.95;;;;;;;18.70;100.00;100934.41;4909524;29;20029;-85
2023/06/19 04:33:56;;;;;;;5.60;4.03;;;;;;;18.71;100.00;100938.72;4906347;29;20031;-85
2023/06/19 04:36:21;;;;;;;5.87;4.23;;;;;;;18.74;100.00;100935.38;4915685;29;20304;-85
2023/06/19 04:38:47;;;;;;;4.78;3.83;;;;;;;18.70;100.00;100934.41;4916856;29;20107;-88
2023/06/19 04:41:12;;;;;;;8.27;4.20;;;;;;;18.74;100.00;100935.38;4915063;29;20059;-87
2023/06/19 04:43:41;;;;;;;12.02;3.75;;;;;;;18.80;100.00;100939.59;4916944;29;20425;-86
2023/06/19 04:46:06;;;;;;;8.35;3.80;;;;;;;18.81;100.00;100948.50;4916496;29;20032;-86
2023/06/19 04:48:32;;;;;;;10.07;4.30;;;;;;;18.83;100.00;100943.59;4889348;29;20044;-86
2023/06/19 04:51:20;;;;;;;9.83;3.90;;;;;;;18.86;100.00;100949.19;4890882;29;20108;-85
2023/06/19 04:53:46;;;;;;;7.43;4.28;;;;;;;18.85;100.00;100953.00;4897989;29;20036;-87
2023/06/19 04:56:11;;;;;;;9.13;4.35;;;;;;;18.89;100.00;100936.91;4911879;29;20107;-86
2023/06/19 04:58:43;;;;;;;11.57;4.10;;;;;;;18.95;100.00;100945.75;4916602;29;20114;-86
2023/06/19 05:01:10;;;;;;;9.98;4.28;;;;;;;19.07;100.00;100951.38;4915105;29;20039;-86
2023/06/19 05:03:35;;;;;;;5.93;4.22;;;;;;;19.18;100.00;100955.44;4883884;29;20478;-85
2023/06/19 05:06:00;;;;;;;5.00;3.87;;;;;;;19.27;100.00;100951.94;4879961;29;20044;-86
2023/06/19 05:08:26;;;;;;;7.57;4.30;;;;;;;19.31;100.00;100950.22;4900902;29;20032;-87
2023/06/19 05:10:51;;;;;;;8.00;4.37;;;;;;;19.35;100.00;100957.41;4897771;29;20061;-86
2023/06/19 05:13:18;;;;;;;8.70;4.67;;;;;;;19.40;100.00;100955.69;4897714;29;20135;-84
2023/06/19 05:15:43;;;;;;;6.30;4.43;;;;;;;19.46;100.00;100957.94;4913059;29;20336;-87
2023/06/19 05:18:08;;;;;;;10.90;4.03;;;;;;;19.56;100.00;100969.63;4916313;29;20447;-85
2023/06/19 05:20:34;;;;;;;6.57;4.50;;;;;;;19.58;100.00;100964.69;4896809;29;20383;-86
2023/06/19 05:22:59;;;;;;;8.37;4.10;;;;;;;19.60;100.00;100960.53;4901408;29;20068;-92
2023/06/19 05:25:24;;;;;;;9.93;4.80;;;;;;;19.66;100.00;100977.50;4911758;29;20150;-96
2023/06/19 05:27:50;;;;;;;6.37;4.50;;;;;;;19.67;100.00;100966.28;4906043;29;20092;-93
2023/06/19 05:30:15;;;;;;;11.80;4.80;;;;;;;19.66;100.00;100975.56;4909415;29;20091;-93
2023/06/19 05:32:40;;;;;;;10.77;5.40;;;;;;;19.72;100.00;100973.50;4903214;29;20025;-93
2023/06/19 05:35:06;;;;;;;5.37;4.67;;;;;;;19.83;100.00;100976.72;4911588;29;20040;-88
2023/06/19 05:37:31;;;;;;;6.40;4.93;;;;;;;19.93;100.00;100978.38;4910394;29;20039;-87
2023/06/19 05:39:57;;;;;;;10.60;4.90;;;;;;;20.02;100.00;100979.19;4890100;29;20444;-88
2023/06/19 05:42:22;;;;;;;9.77;4.97;;;;;;;20.10;100.00;100981.09;4898875;29;20036;-88
2023/06/19 05:44:47;;;;;;;6.83;4.90;;;;;;;20.09;100.00;100987.66;4912934;29;20039;-88
2023/06/19 05:47:13;;;;;;;11.63;4.97;;;;;;;20.10;100.00;100989.25;4916278;29;20131;-87
2023/06/19 05:49:40;;;;;;;7.88;4.90;;;;;;;20.16;100.00;100987.22;4899535;29;20043;-89
2023/06/19 05:52:06;;;;;;;6.68;4.82;;;;;;;20.23;100.00;100984.00;4898838;29;20463;-89
2023/06/19 05:54:31;;;;;;;6.95;5.30;;;;;;;20.23;100.00;100975.84;4896450;29;20032;-85
2023/06/19 05:56:57;;;;;;;8.70;4.80;;;;;;;20.34;100.00;100993.44;4907698;29;20046;-86
2023/06/19 05:59:22;;;;;;;6.10;5.03;;;;;;;20.45;99.80;100991.19;4915290;29;20028;-86
2023/06/19 06:01:47;;;;;;;6.57;5.00;;;;;;;20.64;98.94;100988.13;4898968;29;20024;-85
2023/06/19 06:04:13;;;;;;;7.50;4.77;;;;;;;20.82;97.13;100988.94;4890468;29;20047;-86
2023/06/19 06:06:39;;;;;;;6.25;5.00;;;;;;;21.20;94.58;100995.56;4891978;29;20096;-86
2023/06/19 06:09:05;;;;;;;7.13;4.93;;;;;;;21.47;93.36;100993.53;4870621;29;20081;-86
2023/06/19 06:11:30;;;;;;;7.10;5.13;;;;;;;21.63;91.12;101002.78;4891988;29;20032;-86
2023/06/19 06:13:56;;;;;;;6.80;5.07;;;;;;;21.73;90.74;101001.59;4912135;29;20044;-86
2023/06/19 06:16:21;;;;;;;6.27;5.33;;;;;;;21.86;89.64;101012.59;4910494;29;20130;-86
2023/06/19 06:18:47;;;;;;;6.57;5.97;;;;;;;21.84;88.10;101018.38;4894209;29;20088;-86
2023/06/19 06:21:15;;;;;;;6.67;5.80;;;;;;;21.76;88.30;101027.41;4881163;29;20524;-85
2023/06/19 06:23:44;;;;;;;6.70;5.80;;;;;;;21.61;87.68;101037.75;4924404;29;20039;-85
2023/06/19 06:26:09;;;;;;;7.70;5.88;;;;;;;21.49;88.32;101030.22;4916774;29;20048;-85
2023/06/19 06:28:35;;;;;;;10.03;5.97;;;;;;;21.59;87.13;101022.81;4903014;29;20107;-85
2023/06/19 06:31:00;;;;;;;8.33;6.33;;;;;;;21.62;85.65;101028.44;4898330;29;20028;-87
2023/06/19 06:33:26;;;;;;;7.77;6.20;;;;;;;21.74;84.83;101032.38;4889989;29;20024;-86
2023/06/19 06:35:55;;;;;;;7.18;5.82;;;;;;;21.72;83.75;101043.63;4897110;29;20044;-87
2023/06/19 06:38:20;;;;;;;7.97;7.20;;;;;;;21.68;83.12;101041.91;4896136;29;20390;-87
2023/06/19 06:40:46;;;;;;;6.93;6.20;;;;;;;21.84;83.49;101053.84;4894378;29;20040;-86
2023/06/19 06:43:11;;;;;;;10.30;6.80;;;;;;;22.11;82.41;101053.69;4897038;29;20080;-89
2023/06/19 06:45:41;;;;;;;6.30;5.53;;;;;;;22.59;81.25;101051.59;4909104;29;20024;-89
2023/06/19 06:48:07;;;;;;;6.95;6.22;;;;;;;22.79;78.86;101053.50;4899561;29;20131;-90
2023/06/19 06:50:32;;;;;;;6.50;5.97;;;;;;;22.97;77.35;101061.53;4895478;29;20032;-89
2023/06/19 06:52:57;;;;;;;6.97;5.83;;;;;;;23.07;76.39;101050.16;4897037;29;20032;-90
2023/06/19 06:55:23;;;;;;;7.70;6.37;;;;;;;23.17;74.74;101065.31;4888612;29;20033;-89
2023/06/19 06:57:48;;;;;;;6.67;6.07;;;;;;;23.37;74.35;101057.41;4910163;29;20111;-89
2023/06/19 07:00:14;;;;;;;8.45;6.70;;;;;;;23.41;73.25;101052.88;4895574;29;20033;-89
2023/06/19 07:02:40;;;;;;;12.27;7.53;;;;;;;23.42;72.45;101059.94;4896292;29;20025;-88
2023/06/19 07:05:07;;;;;;;8.63;6.75;;;;;;;23.63;72.09;101069.97;4901049;29;20028;-89
2023/06/19 07:07:32;;;;;;;8.02;7.10;;;;;;;23.82;69.42;101072.94;4904684;29;20032;-89
2023/06/19 07:09:58;;;;;;;9.23;6.83;;;;;;;23.86;70.06;101073.84;4904518;29;20099;-89
2023/06/19 07:12:23;;;;;;;9.90;6.70;;;;;;;23.84;68.98;101080.81;4900986;29;20033;-89
2023/06/19 07:14:48;;;;;;;9.88;6.55;;;;;;;23.79;70.51;101076.38;4909774;29;20033;-89
2023/06/19 07:17:14;;;;;;;8.37;7.43;;;;;;;23.93;69.33;101083.41;4891316;29;20108;-90
2023/06/19 07:19:39;;;;;;;9.77;7.57;;;;;;;24.08;68.59;101090.16;4902846;29;20147;-90
2023/06/19 07:22:04;;;;;;;9.90;7.20;;;;;;;24.04;68.68;101084.56;4895414;29;20047;-92
2023/06/19 07:24:30;;;;;;;9.48;7.40;;;;;;;24.03;66.29;101092.00;4913579;29;21830;-93
2023/06/19 07:26:56;;;;;;;9.70;7.40;;;;;;;24.20;65.80;101103.84;4901335;29;20042;-92
2023/06/19 07:29:23;;;;;;;9.35;6.90;;;;;;;24.49;65.10;101101.94;4905687;29;20047;-91
2023/06/19 07:31:49;;;;;;;10.47;6.93;;;;;;;24.75;63.96;101098.00;4910325;29;20033;-92
2023/06/19 07:34:15;;;;;;;7.90;7.20;;;;;;;24.74;63.27;101107.38;4891453;29;20297;-91
2023/06/19 07:36:41;;;;;;;7.82;6.72;;;;;;;24.63;62.90;101109.78;4908110;29;20086;-90
2023/06/19 07:39:06;;;;;;;9.60;6.83;;;;;;;24.45;63.72;101112.00;4914206;29;20024;-90
2023/06/19 07:41:32;;;;;;;6.83;6.23;;;;;;;24.72;61.74;101117.88;4902927;29;20352;-90
2023/06/19 07:43:57;;;;;;;9.73;6.77;;;;;;;24.72;61.43;101109.66;4913941;29;20028;-89
2023/06/19 07:46:22;;;;;;;9.23;6.60;;;;;;;24.91;61.35;101109.81;4907404;29;20084;-89
2023/06/19 07:48:47;;;;;;;9.43;6.30;;;;;;;25.04;60.88;101115.22;4914188;29;20022;-90
2023/06/19 07:51:13;;;;;;;9.70;6.37;;;;;;;24.95;60.41;101121.69;4932423;29;20036;-90
2023/06/19 07:53:39;;;;;;;8.40;7.23;;;;;;;24.78;61.13;101116.50;4920874;29;20050;-89
2023/06/19 07:56:04;;;;;;;7.20;6.38;;;;;;;24.89;61.09;101109.38;4910787;29;20032;-90
2023/06/19 07:58:30;;;;;;;8.05;7.10;;;;;;;25.17;60.66;101103.06;4901348;29;20024;-90
2023/06/19 08:00:55;;;;;;;10.63;7.20;;;;;;;25.47;59.75;101099.94;4900582;29;20025;-90
2023/06/19 08:03:24;;;;;;;10.57;6.67;;;;;;;25.51;58.85;101098.09;4913610;29;20032;-91
2023/06/19 08:05:49;;;;;;;5.72;5.22;;;;;;;25.74;58.26;101097.47;4926429;29;20032;-89
2023/06/19 08:08:14;;;;;;;8.37;6.70;;;;;;;25.96;56.60;101106.19;4922168;29;20020;-89
2023/06/19 08:10:40;;;;;;;7.30;5.53;;;;;;;25.92;56.65;101117.09;4921580;29;20040;-90
2023/06/19 08:13:07;;;;;;;6.55;5.95;;;;;;;25.76;56.15;101119.84;4907082;29;20064;-87
2023/06/19 08:15:32;;;;;;;11.35;6.75;;;;;;;25.55;57.22;101115.44;4896225;29;20040;-90
2023/06/19 08:17:57;;;;;;;7.53;6.63;;;;;;;25.53;56.94;101116.91;4893336;29;20542;-90
2023/06/19 08:20:23;;;;;;;7.00;6.30;;;;;;;25.88;56.60;101118.94;4895464;29;20437;-89
2023/06/19 08:22:48;;;;;;;7.90;6.30;;;;;;;26.19;55.29;101108.28;4899170;29;20036;-89
2023/06/19 08:25:13;;;;;;;6.93;6.23;;;;;;;26.62;53.47;101120.22;4899458;29;20033;-90
2023/06/19 08:27:39;;;;;;;8.67;6.40;;;;;;;26.65;53.54;101124.97;4904761;29;20062;-89
2023/06/19 08:30:05;;;;;;;7.37;6.43;;;;;;;26.52;53.45;101112.53;4926230;29;20499;-89
2023/06/19 08:32:30;;;;;;;8.65;6.57;;;;;;;26.26;52.97;101111.22;4905379;29;20037;-90
2023/06/19 08:34:55;;;;;;;6.73;5.93;;;;;;;26.26;53.67;101119.44;4902832;29;20071;-91
2023/06/19 08:37:21;;;;;;;7.10;6.07;;;;;;;26.08;54.54;101119.81;4899799;29;20041;-90
2023/06/19 08:39:46;;;;;;;7.17;6.40;;;;;;;25.93;54.62;101123.38;4886789;29;20123;-90
2023/06/19 08:42:12;;;;;;;7.17;6.47;;;;;;;25.88;53.08;101137.38;4902621;29;20301;-89
2023/06/19 08:44:37;;;;;;;11.17;6.33;;;;;;;25.91;53.66;101144.91;4897346;29;20035;-90
2023/06/19 08:47:04;;;;;;;6.72;6.07;;;;;;;25.97;54.04;101140.72;4900520;29;20036;-90
2023/06/19 08:49:30;;;;;;;6.75;5.90;;;;;;;26.09;53.89;101140.63;4899296;29;20059;-90
2023/06/19 08:51:56;;;;;;;8.00;6.40;;;;;;;26.29;52.49;101143.44;4900391;29;20037;-90
2023/06/19 08:54:21;;;;;;;8.40;6.20;;;;;;;26.62;52.37;101153.19;4898257;29;20446;-90
2023/06/19 08:56:47;;;;;;;7.50;5.97;;;;;;;26.79;51.49;101151.94;4896917;29;20043;-91
2023/06/19 08:59:17;;;;;;;10.00;6.60;;;;;;;26.74;51.38;101155.78;4898842;29;20033;-91
2023/06/19 09:01:53;;;;;;;9.60;6.00;;;;;;;27.07;52.06;101150.97;4898593;29;20409;-91
2023/06/19 09:04:30;;;;;;;8.23;6.10;;;;;;;27.46;51.28;101172.94;4908710;29;20048;-91
2023/06/19 09:06:58;;;;;;;7.27;6.57;;;;;;;27.44;49.57;101160.66;4904179;29;20359;-90
2023/06/19 09:09:25;;;;;;;7.63;6.22;;;;;;;27.59;50.57;101154.25;4902852;29;20036;-90
2023/06/19 09:12:00;;;;;;;8.55;6.68;;;;;;;27.55;50.81;101166.38;4904032;29;20113;-91
2023/06/19 09:14:37;;;;;;;9.27;6.68;;;;;;;27.28;49.44;101158.03;4878360;29;20525;-91
2023/06/19 09:17:04;;;;;;;9.43;6.18;;;;;;;27.26;48.24;101171.34;4879759;29;20109;-91
2023/06/19 09:19:29;;;;;;;8.45;6.00;;;;;;;27.44;47.74;101161.47;4878992;29;20449;-91
2023/06/19 09:22:02;;;;;;;7.53;6.50;;;;;;;27.64;47.87;101167.72;4887493;29;20052;-90
2023/06/19 09:24:35;;;;;;;7.40;6.32;;;;;;;27.72;47.10;101181.63;4899922;29;20031;-91
2023/06/19 09:27:13;;;;;;;8.15;6.45;;;;;;;27.51;48.40;101174.56;4908463;29;20043;-90
2023/06/19 09:29:40;;;;;;;11.07;6.38;;;;;;;27.69;46.40;101185.88;4898199;29;20040;-90
2023/06/19 09:32:16;;;;;;;8.38;6.40;;;;;;;27.77;46.41;101162.81;4897872;29;20072;-91
2023/06/19 09:34:41;;;;;;;8.80;6.40;;;;;;;27.89;46.01;101178.34;4897522;29;21162;-91
2023/06/19 09:37:07;;;;;;;7.67;6.30;;;;;;;28.15;44.67;101190.56;4897194;29;20044;-90
2023/06/19 09:39:35;;;;;;;7.47;6.10;;;;;;;27.99;45.06;101187.16;4897226;29;20084;-91
2023/06/19 09:42:03;;;;;;;8.05;6.15;;;;;;;27.89;46.28;101183.88;4897893;29;20492;-90
2023/06/19 09:44:34;;;;;;;7.22;6.53;;;;;;;27.84;47.19;101192.44;4898181;29;20031;-91
2023/06/19 09:47:04;;;;;;;7.33;6.37;;;;;;;27.96;45.85;101188.69;4899939;29;20037;-91
2023/06/19 09:49:32;;;;;;;9.37;6.50;;;;;;;28.04;45.94;101186.84;4898556;29;20305;-92
2023/06/19 09:51:57;;;;;;;10.73;6.53;;;;;;;28.01;45.40;101193.06;4896976;29;20033;-92
2023/06/19 09:54:23;;;;;;;9.63;7.13;;;;;;;27.84;45.74;101189.66;4898395;29;20566;-91
2023/06/19 09:56:51;;;;;;;10.37;6.80;;;;;;;28.17;44.48;101190.22;4896933;29;20860;-92
2023/06/19 09:59:18;;;;;;;7.55;6.05;;;;;;;28.31;45.45;101195.13;4897033;29;20064;-91
2023/06/19 10:01:45;;;;;;;9.85;6.88;;;;;;;28.25;44.68;101189.16;4902871;29;20025;-92
2023/06/19 10:04:11;;;;;;;9.95;7.22;;;;;;;28.14;44.11;101193.72;4902720;29;20032;-92
2023/06/19 10:06:43;;;;;;;11.35;6.60;;;;;;;28.16;45.17;101200.44;4914833;29;20024;-93
2023/06/19 10:09:10;;;;;;;8.50;6.70;;;;;;;28.38;44.40;101198.81;4902253;29;20573;-92
2023/06/19 10:11:51;;;;;;;12.95;6.85;;;;;;;28.70;44.19;101197.63;4894526;29;20031;-92
2023/06/19 10:14:18;;;;;;;7.22;6.25;;;;;;;28.74;43.86;101195.75;4896027;29;20032;-92
2023/06/19 10:16:44;;;;;;;9.75;7.35;;;;;;;28.59;40.82;101191.19;4896017;29;20099;-91
2023/06/19 10:19:17;;;;;;;9.27;6.33;;;;;;;28.75;42.93;101200.09;4909176;29;20028;-93
2023/06/19 10:21:47;;;;;;;12.88;8.13;;;;;;;28.34;42.90;101194.38;4923975;29;20019;-93
2023/06/19 10:24:19;;;;;;;11.52;7.53;;;;;;;28.41;44.32;101202.75;4929221;29;20024;-93
2023/06/19 10:26:59;;;;;;;9.20;7.05;;;;;;;28.50;43.70;101183.19;4889816;29;20040;-92
2023/06/19 10:29:26;;;;;;;7.72;6.22;;;;;;;28.37;43.88;101193.66;4896365;29;20021;-93
2023/06/19 10:31:52;;;;;;;7.45;6.65;;;;;;;28.59;41.17;101197.47;4879830;29;20115;-92
2023/06/19 10:34:17;;;;;;;8.80;6.40;;;;;;;28.79;40.58;101191.88;4889126;29;20104;-92
2023/06/19 10:36:43;;;;;;;9.32;6.40;;;;;;;29.17;40.85;101199.03;4879902;29;20746;-92
2023/06/19 10:39:09;;;;;;;8.50;6.13;;;;;;;29.48;40.63;101206.44;4877040;29;20029;-92
2023/06/19 10:41:34;;;;;;;7.07;6.13;;;;;;;29.46;40.30;101207.63;4877535;29;20057;-91
2023/06/19 10:44:03;;;;;;;7.20;6.45;;;;;;;29.66;39.71;101217.66;4894467;29;20092;-92
2023/06/19 10:46:31;;;;;;;7.38;6.00;;;;;;;29.64;38.61;101218.03;4898900;29;20116;-91
2023/06/19 10:49:00;;;;;;;10.15;6.18;;;;;;;29.67;38.25;101202.69;4914872;29;20028;-92
2023/06/19 10:51:27;;;;;;;6.13;5.53;;;;;;;29.86;39.38;101204.41;4914802;29;20542;-93
2023/06/19 10:53:55;;;;;;;9.43;6.37;;;;;;;29.55;39.13;101206.53;4914697;29;20288;-93
2023/06/19 10:56:21;;;;;;;9.65;6.25;;;;;;;29.59;38.19;101196.28;4914227;29;20036;-91
2023/06/19 10:58:47;;;;;;;9.48;6.45;;;;;;;29.63;39.50;101199.88;4910649;29;20127;-92
2023/06/19 11:01:12;;;;;;;8.00;6.20;;;;;;;29.52;40.03;101190.72;4899132;29;20092;-91
2023/06/19 11:03:37;;;;;;;8.77;6.90;;;;;;;29.26;39.36;101193.19;4898310;29;20025;-91
2023/06/19 11:06:03;;;;;;;12.37;7.73;;;;;;;29.19;40.44;101195.88;4895904;29;20033;-92
2023/06/19 11:08:28;;;;;;;11.47;6.90;;;;;;;29.11;40.45;101177.69;4896361;29;20029;-91
2023/06/19 11:10:55;;;;;;;8.93;6.60;;;;;;;29.51;39.18;101189.91;4911200;29;20025;-90
2023/06/19 11:13:20;;;;;;;6.87;5.50;;;;;;;30.02;39.68;101196.69;4916755;29;20335;-92
2023/06/19 11:15:49;;;;;;;8.18;6.30;;;;;;;30.11;38.81;101192.81;4903734;29;20111;-92
2023/06/19 11:18:15;;;;;;;12.45;6.72;;;;;;;29.96;37.88;101184.41;4889308;29;20153;-92